createdAt,value
2018-08-22T00:00:33.925Z,18.23
2018-08-22T00:03:02.662Z,18.17
2018-08-22T00:05:31.366Z,18.15
2018-08-22T00:08:00.062Z,18.09
2018-08-22T00:10:28.802Z,18.07
2018-08-22T00:12:57.501Z,18.02
2018-08-22T00:15:26.233Z,17.97
2018-08-22T00:17:54.985Z,18.00
2018-08-22T00:20:23.689Z,18.01
2018-08-22T00:22:52.398Z,18.03
2018-08-22T00:25:21.210Z,17.96
2018-08-22T00:27:49.997Z,17.89
2018-08-22T00:30:18.729Z,17.91
2018-08-22T00:32:47.555Z,17.95
2018-08-22T00:35:16.265Z,18.00
2018-08-22T00:37:44.957Z,18.08
2018-08-22T00:40:13.834Z,18.05
2018-08-22T00:42:42.552Z,18.03
2018-08-22T00:45:11.275Z,17.99
2018-08-22T00:47:39.989Z,17.95
2018-08-22T00:50:08.709Z,17.96
2018-08-22T00:52:37.433Z,18.17
2018-08-22T00:55:06.177Z,18.08
2018-08-22T00:57:34.880Z,18.04
2018-08-22T01:00:03.619Z,18.09
2018-08-22T01:02:32.325Z,18.16
2018-08-22T01:05:01.117Z,18.24
2018-08-22T01:07:29.825Z,18.45
2018-08-22T01:09:58.513Z,18.46
2018-08-22T01:12:27.208Z,18.39
2018-08-22T01:14:56.097Z,18.25
2018-08-22T01:17:24.982Z,18.30
2018-08-22T01:19:53.717Z,18.39
2018-08-22T01:22:22.405Z,18.29
2018-08-22T01:24:51.114Z,18.33
2018-08-22T01:27:22.317Z,18.43
2018-08-22T01:29:53.183Z,18.35
2018-08-22T01:32:22.453Z,18.33
2018-08-22T01:34:52.061Z,18.29
2018-08-22T01:37:20.753Z,18.36
2018-08-22T01:39:49.745Z,18.23
2018-08-22T01:42:19.015Z,18.11
2018-08-22T01:44:48.037Z,18.15
2018-08-22T01:47:17.129Z,18.10
2018-08-22T01:49:45.826Z,18.01
2018-08-22T01:52:14.517Z,18.02
2018-08-22T01:54:43.214Z,18.05
2018-08-22T01:57:11.897Z,18.15
2018-08-22T01:59:40.607Z,18.12
2018-08-22T02:02:09.337Z,18.05
2018-08-22T02:04:38.026Z,18.03
2018-08-22T02:07:06.751Z,18.04
2018-08-22T02:09:35.517Z,18.11
2018-08-22T02:12:04.260Z,18.06
2018-08-22T02:14:33.020Z,17.93
2018-08-22T02:17:01.713Z,17.91
2018-08-22T02:19:30.401Z,17.88
2018-08-22T02:21:59.092Z,17.89
2018-08-22T02:24:27.925Z,17.85
2018-08-22T02:26:56.665Z,17.61
2018-08-22T02:29:25.363Z,17.73
2018-08-22T02:31:54.134Z,17.60
2018-08-22T02:34:22.855Z,17.48
2018-08-22T02:36:51.779Z,17.32
2018-08-22T02:39:20.603Z,17.26
2018-08-22T02:41:49.312Z,17.18
2018-08-22T02:44:18.015Z,17.50
2018-08-22T02:46:46.705Z,17.59
2018-08-22T02:49:16.228Z,17.57
2018-08-22T02:51:44.921Z,17.60
2018-08-22T02:54:13.602Z,17.55
2018-08-22T02:56:42.337Z,17.47
2018-08-22T02:59:11.429Z,17.39
2018-08-22T03:01:40.173Z,17.44
2018-08-22T03:04:08.921Z,17.47
2018-08-22T03:06:37.625Z,17.53
2018-08-22T03:09:07.926Z,17.53
2018-08-22T03:11:36.657Z,17.53
2018-08-22T03:14:05.553Z,17.51
2018-08-22T03:16:34.260Z,17.62
2018-08-22T03:19:02.945Z,17.71
2018-08-22T03:21:31.683Z,17.57
2018-08-22T03:24:00.360Z,17.54
2018-08-22T03:26:29.087Z,17.47
2018-08-22T03:28:57.772Z,17.44
2018-08-22T03:31:26.469Z,17.40
2018-08-22T03:33:55.216Z,17.36
2018-08-22T03:36:23.937Z,17.39
2018-08-22T03:38:52.649Z,17.37
2018-08-22T03:41:21.345Z,17.32
2018-08-22T03:43:50.038Z,17.37
2018-08-22T03:46:18.794Z,17.50
2018-08-22T03:48:47.509Z,17.48
2018-08-22T03:51:16.216Z,17.61
2018-08-22T03:53:44.923Z,17.78
2018-08-22T03:56:13.633Z,17.76
2018-08-22T03:58:42.691Z,17.97
2018-08-22T04:01:11.398Z,18.44
2018-08-22T04:03:40.081Z,19.20
2018-08-22T04:06:08.969Z,19.93
2018-08-22T04:08:37.677Z,20.59
2018-08-22T04:11:06.493Z,21.03
2018-08-22T04:13:35.184Z,21.51
2018-08-22T04:16:03.905Z,22.04
2018-08-22T04:18:32.602Z,22.55
2018-08-22T04:21:01.305Z,23.04
2018-08-22T04:23:30.049Z,23.48
2018-08-22T04:25:58.752Z,23.96
2018-08-22T04:28:27.548Z,24.16
2018-08-22T04:30:56.285Z,24.46
2018-08-22T04:33:25.123Z,24.87
2018-08-22T04:35:53.813Z,25.33
2018-08-22T04:38:22.527Z,25.46
2018-08-22T04:40:51.213Z,26.00
2018-08-22T04:43:19.900Z,26.34
2018-08-22T04:45:48.585Z,26.39
2018-08-22T04:48:17.330Z,26.77
2018-08-22T04:50:45.999Z,27.00
2018-08-22T04:53:14.711Z,27.18
2018-08-22T04:55:43.462Z,27.23
2018-08-22T04:58:12.426Z,27.30
2018-08-22T05:00:41.132Z,27.58
2018-08-22T05:03:09.870Z,27.69
2018-08-22T05:05:38.565Z,28.23
2018-08-22T05:08:07.278Z,28.11
2018-08-22T05:10:35.986Z,28.54
2018-08-22T05:13:04.689Z,29.09
2018-08-22T05:15:33.433Z,29.40
2018-08-22T05:18:02.132Z,29.84
2018-08-22T05:20:30.978Z,29.88
2018-08-22T05:23:00.277Z,31.09
2018-08-22T05:25:28.985Z,31.53
2018-08-22T05:27:57.689Z,32.31
2018-08-22T05:30:26.558Z,32.45
2018-08-22T05:32:55.369Z,32.94
2018-08-22T05:35:24.145Z,33.10
2018-08-22T05:37:52.853Z,32.96
2018-08-22T05:40:21.578Z,33.13
2018-08-22T05:42:50.274Z,33.81
2018-08-22T05:45:18.966Z,34.43
2018-08-22T05:47:47.654Z,35.18
2018-08-22T05:50:16.403Z,35.24
2018-08-22T05:52:45.147Z,34.29
2018-08-22T05:55:13.901Z,34.35
2018-08-22T05:57:42.673Z,34.75
2018-08-22T06:00:11.349Z,35.30
2018-08-22T06:02:40.133Z,35.46
2018-08-22T06:05:08.841Z,36.12
2018-08-22T06:07:37.676Z,36.43
2018-08-22T06:10:06.481Z,36.78
2018-08-22T06:12:35.252Z,37.34
2018-08-22T06:15:04.003Z,37.15
2018-08-22T06:17:32.725Z,36.42
2018-08-22T06:20:01.455Z,36.53
2018-08-22T06:22:30.170Z,36.35
2018-08-22T06:24:59.036Z,35.82
2018-08-22T06:27:27.759Z,36.43
2018-08-22T06:29:58.073Z,36.55
2018-08-22T06:32:26.981Z,37.30
2018-08-22T06:34:55.714Z,37.06
2018-08-22T06:37:24.451Z,36.53
2018-08-22T06:39:53.431Z,37.08
2018-08-22T06:42:22.139Z,38.12
2018-08-22T06:44:51.185Z,37.89
2018-08-22T06:47:19.910Z,38.56
2018-08-22T06:49:48.658Z,38.67
2018-08-22T06:52:17.730Z,37.74
2018-08-22T06:54:46.435Z,38.63
2018-08-22T06:57:15.216Z,38.81
2018-08-22T06:59:43.923Z,38.44
2018-08-22T07:02:12.635Z,38.02
2018-08-22T07:04:41.339Z,38.70
2018-08-22T07:07:10.070Z,39.14
2018-08-22T07:09:38.801Z,39.32
2018-08-22T07:12:07.566Z,39.66
2018-08-22T07:14:36.265Z,40.11
2018-08-22T07:17:04.961Z,39.32
2018-08-22T07:19:33.678Z,39.49
2018-08-22T07:22:02.380Z,39.52
2018-08-22T07:24:31.092Z,39.88
2018-08-22T07:26:59.834Z,38.48
2018-08-22T07:29:28.529Z,39.19
2018-08-22T07:31:57.221Z,39.40
2018-08-22T07:34:26.073Z,39.63
2018-08-22T07:36:54.792Z,40.24
2018-08-22T07:39:23.526Z,40.18
2018-08-22T07:41:52.257Z,39.22
2018-08-22T07:44:20.979Z,39.75
2018-08-22T07:46:49.677Z,39.19
2018-08-22T07:49:18.458Z,38.94
2018-08-22T07:51:47.162Z,39.17
2018-08-22T07:54:15.857Z,39.22
2018-08-22T07:56:44.555Z,39.76
2018-08-22T07:59:14.628Z,38.10
2018-08-22T08:01:43.780Z,36.93
2018-08-22T08:04:13.510Z,38.46
2018-08-22T08:06:42.632Z,39.30
2018-08-22T08:09:13.833Z,39.84
2018-08-22T08:11:42.521Z,40.24
2018-08-22T08:14:11.210Z,40.49
2018-08-22T08:16:39.915Z,41.52
2018-08-22T08:19:09.222Z,42.19
2018-08-22T08:21:38.325Z,42.69
2018-08-22T08:24:07.386Z,42.07
2018-08-22T08:26:36.109Z,41.99
2018-08-22T08:29:04.916Z,42.02
2018-08-22T08:31:33.651Z,41.62
2018-08-22T08:34:02.345Z,39.83
2018-08-22T08:36:31.073Z,40.63
2018-08-22T08:38:59.792Z,41.44
2018-08-22T08:41:28.531Z,41.55
2018-08-22T08:43:57.375Z,41.91
2018-08-22T08:46:26.164Z,42.09
2018-08-22T08:48:54.889Z,42.31
2018-08-22T08:51:23.598Z,43.04
2018-08-22T08:53:52.314Z,43.14
2018-08-22T08:56:21.001Z,43.03
2018-08-22T08:58:49.685Z,43.06
2018-08-22T09:01:18.390Z,43.34
2018-08-22T09:03:47.119Z,43.96
2018-08-22T09:06:15.822Z,43.48
2018-08-22T09:08:44.545Z,43.25
2018-08-22T09:11:13.229Z,42.93
2018-08-22T09:13:46.039Z,43.30
2018-08-22T09:16:14.735Z,41.91
2018-08-22T09:18:43.426Z,41.11
2018-08-22T09:21:12.197Z,41.65
2018-08-22T09:23:40.850Z,41.94
2018-08-22T09:26:09.709Z,41.94
2018-08-22T09:28:38.418Z,40.85
2018-08-22T09:31:07.126Z,41.46
2018-08-22T09:33:35.927Z,42.37
2018-08-22T09:36:04.706Z,42.41
2018-08-22T09:38:33.500Z,41.52
2018-08-22T09:41:02.333Z,42.05
2018-08-22T09:43:31.071Z,42.56
2018-08-22T09:45:59.756Z,42.25
2018-08-22T09:48:28.461Z,42.01
2018-08-22T09:50:57.389Z,42.54
2018-08-22T09:53:26.053Z,42.11
2018-08-22T09:55:54.737Z,42.56
2018-08-22T09:58:23.594Z,42.66
2018-08-22T10:00:57.403Z,42.14
2018-08-22T10:03:26.291Z,42.41
2018-08-22T10:05:54.971Z,42.93
2018-08-22T10:08:23.653Z,41.98
2018-08-22T10:10:52.337Z,42.00
2018-08-22T10:13:21.155Z,42.18
2018-08-22T10:15:49.886Z,42.03
2018-08-22T10:18:18.616Z,41.49
2018-08-22T10:20:47.302Z,42.34
2018-08-22T10:23:17.911Z,42.87
2018-08-22T10:25:46.897Z,43.21
2018-08-22T10:28:15.782Z,42.72
2018-08-22T10:30:44.510Z,43.78
2018-08-22T10:33:13.221Z,44.50
2018-08-22T10:35:41.965Z,43.70
2018-08-22T10:38:10.675Z,43.58
2018-08-22T10:40:39.418Z,43.46
2018-08-22T10:43:08.114Z,42.50
2018-08-22T10:45:36.818Z,42.88
2018-08-22T10:48:05.547Z,42.04
2018-08-22T10:50:34.391Z,41.59
2018-08-22T10:53:03.234Z,41.10
2018-08-22T10:55:32.018Z,41.74
2018-08-22T10:58:00.733Z,42.23
2018-08-22T11:00:29.480Z,42.22
2018-08-22T11:02:58.192Z,42.11
2018-08-22T11:05:26.945Z,42.40
2018-08-22T11:07:56.637Z,42.96
2018-08-22T11:10:25.348Z,42.97
2018-08-22T11:12:54.091Z,43.05
2018-08-22T11:15:22.790Z,43.13
2018-08-22T11:17:51.490Z,44.29
2018-08-22T11:20:20.208Z,44.44
2018-08-22T11:23:00.275Z,43.69
2018-08-22T11:25:40.315Z,43.56
2018-08-22T11:28:19.993Z,43.16
2018-08-22T11:30:59.677Z,42.73
2018-08-22T11:33:39.363Z,43.45
2018-08-22T11:36:07.036Z,43.71
2018-08-22T11:38:35.829Z,43.26
2018-08-22T11:41:04.688Z,42.34
2018-08-22T11:43:33.506Z,42.25
2018-08-22T11:46:02.338Z,42.79
2018-08-22T11:48:31.071Z,41.52
2018-08-22T11:50:59.807Z,41.55
2018-08-22T11:53:28.513Z,41.68
2018-08-22T11:55:57.423Z,40.83
2018-08-22T11:58:27.128Z,41.10
2018-08-22T12:00:55.874Z,42.29
2018-08-22T12:03:24.622Z,42.48
2018-08-22T12:05:53.383Z,41.98
2018-08-22T12:08:22.128Z,42.67
2018-08-22T12:10:50.827Z,43.30
2018-08-22T12:13:19.829Z,42.74
2018-08-22T12:15:48.548Z,41.29
2018-08-22T12:18:17.277Z,41.35
2018-08-22T12:20:46.072Z,41.63
2018-08-22T12:23:14.944Z,41.17
2018-08-22T12:25:43.560Z,40.52
2018-08-22T12:28:12.256Z,39.62
2018-08-22T12:30:41.085Z,38.76
2018-08-22T12:33:09.943Z,38.87
2018-08-22T12:35:38.688Z,38.46
2018-08-22T12:38:07.409Z,38.23
2018-08-22T12:40:36.205Z,38.02
2018-08-22T12:43:04.963Z,38.54
2018-08-22T12:45:33.718Z,40.08
2018-08-22T12:48:02.533Z,40.84
2018-08-22T12:50:31.299Z,41.63
2018-08-22T12:53:00.093Z,40.54
2018-08-22T12:55:28.859Z,40.09
2018-08-22T12:57:57.620Z,40.64
2018-08-22T13:00:26.498Z,41.75
2018-08-22T13:02:55.259Z,41.91
2018-08-22T13:05:23.987Z,41.25
2018-08-22T13:07:52.736Z,40.65
2018-08-22T13:10:21.479Z,40.32
2018-08-22T13:12:50.256Z,39.17
2018-08-22T13:15:19.044Z,38.37
2018-08-22T13:17:47.786Z,37.14
2018-08-22T13:20:16.559Z,36.80
2018-08-22T13:22:45.355Z,36.71
2018-08-22T13:25:14.083Z,36.84
2018-08-22T13:27:42.863Z,37.16
2018-08-22T13:30:11.841Z,37.08
2018-08-22T13:32:40.713Z,36.96
2018-08-22T13:35:09.490Z,36.92
2018-08-22T13:37:38.173Z,36.89
2018-08-22T13:40:06.990Z,36.16
2018-08-22T13:42:35.781Z,34.99
2018-08-22T13:45:04.551Z,34.85
2018-08-22T13:47:33.321Z,34.33
2018-08-22T13:50:02.068Z,33.87
2018-08-22T13:52:30.873Z,33.71
2018-08-22T13:54:59.633Z,33.22
2018-08-22T13:57:28.526Z,33.18
2018-08-22T13:59:57.281Z,33.15
2018-08-22T14:02:26.333Z,33.12
2018-08-22T14:04:55.328Z,33.05
2018-08-22T14:07:24.127Z,32.92
2018-08-22T14:09:52.897Z,32.84
2018-08-22T14:12:21.638Z,32.47
2018-08-22T14:14:50.376Z,32.17
2018-08-22T14:17:19.121Z,32.04
2018-08-22T14:19:47.981Z,31.98
2018-08-22T14:22:16.791Z,31.92
2018-08-22T14:24:45.573Z,32.02
2018-08-22T14:27:14.286Z,32.04
2018-08-22T14:29:43.201Z,32.14
2018-08-22T14:32:11.953Z,31.98
2018-08-22T14:34:40.709Z,31.78
2018-08-22T14:37:09.460Z,31.69
2018-08-22T14:39:38.416Z,31.69
2018-08-22T14:42:08.012Z,31.68
2018-08-22T14:44:36.805Z,31.54
2018-08-22T14:47:11.860Z,31.49
2018-08-22T14:49:40.863Z,31.55
2018-08-22T14:52:09.630Z,31.52
2018-08-22T14:54:39.355Z,31.56
2018-08-22T14:57:08.606Z,31.38
2018-08-22T14:59:37.458Z,31.24
2018-08-22T15:02:06.278Z,31.34
2018-08-22T15:04:35.036Z,31.34
2018-08-22T15:07:03.887Z,31.20
2018-08-22T15:09:32.622Z,31.23
2018-08-22T15:12:01.368Z,31.20
2018-08-22T15:14:30.099Z,31.26
2018-08-22T15:16:58.834Z,31.26
2018-08-22T15:19:27.663Z,31.37
2018-08-22T15:21:56.431Z,31.40
2018-08-22T15:24:25.157Z,31.49
2018-08-22T15:26:53.990Z,31.43
2018-08-22T15:29:22.758Z,31.43
2018-08-22T15:31:51.549Z,31.40
2018-08-22T15:34:20.317Z,31.26
2018-08-22T15:36:49.099Z,31.06
2018-08-22T15:39:17.859Z,30.98
2018-08-22T15:41:46.655Z,30.84
2018-08-22T15:44:15.460Z,30.69
2018-08-22T15:46:44.233Z,30.52
2018-08-22T15:49:12.991Z,30.36
2018-08-22T15:51:41.826Z,30.20
2018-08-22T15:54:12.878Z,30.05
2018-08-22T15:56:42.346Z,29.89
2018-08-22T15:59:11.748Z,29.69
2018-08-22T16:01:40.705Z,29.50
2018-08-22T16:04:09.820Z,29.23
2018-08-22T16:06:38.561Z,29.09
2018-08-22T16:09:11.805Z,28.94
2018-08-22T16:11:40.544Z,28.85
2018-08-22T16:14:09.386Z,28.71
2018-08-22T16:16:38.213Z,28.59
2018-08-22T16:19:07.000Z,28.47
2018-08-22T16:21:38.000Z,28.36
2018-08-22T16:24:06.862Z,28.29
2018-08-22T16:26:35.741Z,28.23
2018-08-22T16:29:04.525Z,28.10
2018-08-22T16:31:39.309Z,28.04
2018-08-22T16:34:09.977Z,27.98
2018-08-22T16:36:40.043Z,27.88
2018-08-22T16:39:09.374Z,27.78
2018-08-22T16:41:38.147Z,27.73
2018-08-22T16:44:06.891Z,27.61
2018-08-22T16:46:35.660Z,27.46
2018-08-22T16:49:04.398Z,27.38
2018-08-22T16:51:33.147Z,27.20
2018-08-22T16:54:07.140Z,27.06
2018-08-22T16:56:36.436Z,27.06
2018-08-22T16:59:13.908Z,26.98
2018-08-22T17:01:46.651Z,26.85
2018-08-22T17:04:15.449Z,26.74
2018-08-22T17:06:44.220Z,26.60
2018-08-22T17:09:13.226Z,26.45
2018-08-22T17:11:42.136Z,26.28
2018-08-22T17:14:11.153Z,26.02
2018-08-22T17:16:39.939Z,25.94
2018-08-22T17:19:08.685Z,25.80
2018-08-22T17:21:37.435Z,25.72
2018-08-22T17:24:06.535Z,25.65
2018-08-22T17:26:35.426Z,25.56
2018-08-22T17:29:04.278Z,25.49
2018-08-22T17:31:33.073Z,25.31
2018-08-22T17:34:03.180Z,25.28
2018-08-22T17:36:31.980Z,25.22
2018-08-22T17:39:01.666Z,25.14
2018-08-22T17:41:31.067Z,25.04
2018-08-22T17:44:10.103Z,25.01
2018-08-22T17:46:44.129Z,24.97
2018-08-22T17:49:12.906Z,24.95
2018-08-22T17:51:55.730Z,24.97
2018-08-22T17:54:24.712Z,25.08
2018-08-22T17:57:08.177Z,25.01
2018-08-22T17:59:43.824Z,24.91
2018-08-22T18:02:21.161Z,24.81
2018-08-22T18:05:02.377Z,24.75
2018-08-22T18:07:37.179Z,24.71
2018-08-22T18:10:12.684Z,24.64
2018-08-22T18:12:48.719Z,24.59
2018-08-22T18:15:24.218Z,24.51
2018-08-22T18:17:59.594Z,24.41
2018-08-22T18:20:37.520Z,24.30
2018-08-22T18:23:13.018Z,24.20
2018-08-22T18:25:50.992Z,24.15
2018-08-22T18:28:25.863Z,24.19
2018-08-22T18:30:54.774Z,24.14
2018-08-22T18:33:23.702Z,24.13
2018-08-22T18:35:52.844Z,24.14
2018-08-22T18:38:24.751Z,24.10
2018-08-22T18:41:06.688Z,24.01
2018-08-22T18:43:39.851Z,23.99
2018-08-22T18:46:12.773Z,24.00
2018-08-22T18:48:46.488Z,23.84
2018-08-22T18:51:20.623Z,23.87
2018-08-22T18:53:54.410Z,23.91
2018-08-22T18:56:28.759Z,23.85
2018-08-22T18:59:06.478Z,23.90
2018-08-22T19:01:40.491Z,23.97
2018-08-22T19:04:13.536Z,24.07
2018-08-22T19:06:46.709Z,24.14
2018-08-22T19:09:19.950Z,24.14
2018-08-22T19:11:53.035Z,24.14
2018-08-22T19:14:35.979Z,24.06
2018-08-22T19:17:09.163Z,24.01
2018-08-22T19:19:49.122Z,23.96
2018-08-22T19:22:18.840Z,23.88
2018-08-22T19:25:04.547Z,23.81
2018-08-22T19:27:34.470Z,23.81
2018-08-22T19:30:04.932Z,23.86
2018-08-22T19:32:33.733Z,23.77
2018-08-22T19:35:02.456Z,23.66
2018-08-22T19:37:31.184Z,23.70
2018-08-22T19:40:05.698Z,23.73
2018-08-22T19:42:36.574Z,23.75
2018-08-22T19:45:10.873Z,23.68
2018-08-22T19:47:40.228Z,23.60
2018-08-22T19:50:10.028Z,23.55
2018-08-22T19:52:38.807Z,23.49
2018-08-22T19:55:08.256Z,23.39
2018-08-22T19:57:39.090Z,23.30
2018-08-22T20:00:09.529Z,23.23
2018-08-22T20:02:38.632Z,23.13
2018-08-22T20:05:08.623Z,23.01
2018-08-22T20:07:37.717Z,22.93
2018-08-22T20:10:06.978Z,22.80
2018-08-22T20:12:52.515Z,22.75
2018-08-22T20:15:21.594Z,22.70
2018-08-22T20:17:51.662Z,22.64
2018-08-22T20:20:21.029Z,22.62
2018-08-22T20:22:53.064Z,22.63
2018-08-22T20:25:21.834Z,22.66
2018-08-22T20:27:50.597Z,22.67
2018-08-22T20:30:25.615Z,22.63
2018-08-22T20:32:59.912Z,22.56
2018-08-22T20:35:37.805Z,22.49
2018-08-22T20:38:10.678Z,22.52
2018-08-22T20:40:39.549Z,22.54
2018-08-22T20:43:15.236Z,22.57
2018-08-22T20:45:44.885Z,22.56
2018-08-22T20:48:14.738Z,22.55
2018-08-22T20:50:44.781Z,22.49
2018-08-22T20:53:15.521Z,22.46
2018-08-22T20:55:44.327Z,22.48
2018-08-22T20:58:18.431Z,22.45
2018-08-22T21:00:47.186Z,22.43
2018-08-22T21:03:18.118Z,22.40
2018-08-22T21:05:46.972Z,22.36
2018-08-22T21:08:15.826Z,22.32
2018-08-22T21:10:44.741Z,22.26
2018-08-22T21:13:18.524Z,22.17
2018-08-22T21:15:47.351Z,22.18
2018-08-22T21:18:16.159Z,22.22
2018-08-22T21:20:44.897Z,22.24
2018-08-22T21:23:13.638Z,22.28
2018-08-22T21:25:44.607Z,22.30
2018-08-22T21:28:13.805Z,22.33
2018-08-22T21:30:50.487Z,22.27
2018-08-22T21:33:19.260Z,22.24
2018-08-22T21:35:48.042Z,22.19
2018-08-22T21:38:18.712Z,22.16
2018-08-22T21:40:47.584Z,22.06
2018-08-22T21:43:16.416Z,21.95
2018-08-22T21:45:47.629Z,21.87
2018-08-22T21:48:17.861Z,21.76
2018-08-22T21:50:46.946Z,21.65
2018-08-22T21:53:15.690Z,21.63
2018-08-22T21:55:46.933Z,21.56
2018-08-22T21:58:15.714Z,21.50
2018-08-22T22:00:44.506Z,21.47
2018-08-22T22:03:14.025Z,21.46
2018-08-22T22:05:47.266Z,21.42
2018-08-22T22:08:16.046Z,21.33
2018-08-22T22:10:44.839Z,21.32
2018-08-22T22:13:13.574Z,21.32
2018-08-22T22:15:43.003Z,21.30
2018-08-22T22:18:11.878Z,21.26
2018-08-22T22:20:40.890Z,21.23
2018-08-22T22:23:09.685Z,21.16
2018-08-22T22:25:38.422Z,21.10
2018-08-22T22:28:07.147Z,21.07
2018-08-22T22:30:35.946Z,20.96
2018-08-22T22:33:04.668Z,20.88
2018-08-22T22:35:37.837Z,20.83
2018-08-22T22:38:11.908Z,20.77
2018-08-22T22:40:41.124Z,20.68
2018-08-22T22:43:12.882Z,20.61
2018-08-22T22:45:41.585Z,20.66
2018-08-22T22:48:10.338Z,20.65
2018-08-22T22:50:39.051Z,20.56
2018-08-22T22:53:07.773Z,20.51
2018-08-22T22:55:36.486Z,20.58
2018-08-22T22:58:05.237Z,20.52
2018-08-22T23:00:33.961Z,20.50
2018-08-22T23:03:06.621Z,20.52
2018-08-22T23:05:35.358Z,20.48
2018-08-22T23:08:04.511Z,20.43
2018-08-22T23:10:33.237Z,20.39
2018-08-22T23:13:01.969Z,20.36
2018-08-22T23:15:31.447Z,20.37
2018-08-22T23:18:01.450Z,20.37
2018-08-22T23:20:38.940Z,20.34
2018-08-22T23:23:23.975Z,20.23
2018-08-22T23:25:52.913Z,20.13
2018-08-22T23:28:21.610Z,20.04
2018-08-22T23:30:50.316Z,20.06
2018-08-22T23:33:19.045Z,20.05
2018-08-22T23:35:47.782Z,20.02
2018-08-22T23:38:21.501Z,19.95
2018-08-22T23:40:50.211Z,19.97
2018-08-22T23:43:18.953Z,19.91
2018-08-22T23:45:52.771Z,19.88
2018-08-22T23:48:26.626Z,19.87
2018-08-22T23:50:58.522Z,19.84
2018-08-22T23:53:30.159Z,19.81
2018-08-22T23:56:11.769Z,19.74
2018-08-22T23:58:41.657Z,19.69
